Time;durP1;ratioP1;P1;durP2;ratioP2;P2;SDS_P1;SDS_P2;PMS_P1;PMS_P2;Temp;Humidity;BMP_temperature;BMP_pressure;BME280_temperature;BME280_humidity;BME280_pressure;Samples;Min_cycle;Max_cycle;Signal;HPM_P1;HPM_P2
2023/07/24 00:00:53;;;;;;;10.98;4.13;;;;;;;23.99;nan;62048.16;5087243;28;20665;-60
2023/07/24 00:03:18;;;;;;;8.15;4.50;;;;;;;23.66;nan;61953.81;5080010;28;20173;-60
2023/07/24 00:05:43;;;;;;;9.32;4.43;;;;;;;23.85;nan;62017.16;5082863;28;20225;-60
2023/07/24 00:08:09;;;;;;;7.43;4.47;;;;;;;23.93;nan;62067.44;5072724;28;20260;-63
2023/07/24 00:10:34;;;;;;;10.80;5.32;;;;;;;23.84;nan;62046.75;5086952;28;20241;-60
2023/07/24 00:13:01;;;;;;;10.63;5.15;;;;;;;23.73;nan;61974.78;5092797;28;20193;-59
2023/07/24 00:15:26;;;;;;;11.20;5.10;;;;;;;23.66;nan;62082.22;5091199;28;20185;-60
2023/07/24 00:17:51;;;;;;;9.38;4.70;;;;;;;23.69;nan;61988.50;5075350;28;20176;-60
2023/07/24 00:20:17;;;;;;;10.00;4.95;;;;;;;23.57;nan;61975.44;5086389;28;20229;-61
2023/07/24 00:22:42;;;;;;;8.85;4.40;;;;;;;23.52;nan;61966.59;5070964;28;20188;-61
2023/07/24 00:25:08;;;;;;;9.23;4.63;;;;;;;23.42;nan;62018.34;5082588;28;20180;-61
2023/07/24 00:27:34;;;;;;;7.93;4.25;;;;;;;23.36;nan;61961.97;5092189;28;20499;-61
2023/07/24 00:29:59;;;;;;;11.90;4.93;;;;;;;23.14;nan;61997.50;5092204;28;20173;-61
2023/07/24 00:32:25;;;;;;;13.85;5.10;;;;;;;23.45;nan;61959.19;5092415;28;20577;-61
2023/07/24 00:34:50;;;;;;;9.13;4.95;;;;;;;23.61;nan;62000.28;5092089;28;20165;-61
2023/07/24 00:37:15;;;;;;;8.82;4.45;;;;;;;23.66;nan;62030.03;5083101;28;20265;-60
2023/07/24 00:39:41;;;;;;;7.90;4.28;;;;;;;23.26;nan;61932.91;5082729;28;20192;-61
2023/07/24 00:42:06;;;;;;;7.68;4.57;;;;;;;23.30;nan;62271.28;5078993;28;20630;-61
2023/07/24 00:44:32;;;;;;;8.43;4.63;;;;;;;23.13;nan;62058.94;5072008;28;20162;-61
2023/07/24 00:46:57;;;;;;;10.50;4.38;;;;;;;23.14;nan;62064.72;5090145;28;20252;-61
2023/07/24 00:49:23;;;;;;;8.75;4.90;;;;;;;23.10;nan;61966.31;5091915;28;20336;-61
2023/07/24 00:51:49;;;;;;;9.23;4.97;;;;;;;23.33;nan;61974.22;5092086;28;20207;-61
2023/07/24 00:54:16;;;;;;;7.57;4.50;;;;;;;23.41;nan;61982.75;5092307;28;20166;-61
2023/07/24 00:56:43;;;;;;;8.35;4.85;;;;;;;23.20;nan;61980.31;5073792;28;20193;-61
2023/07/24 00:59:09;;;;;;;10.35;4.82;;;;;;;23.14;nan;61931.75;5087739;28;20181;-60
2023/07/24 01:01:36;;;;;;;8.60;5.32;;;;;;;23.24;nan;61917.63;5071440;28;20612;-60
2023/07/24 01:04:03;;;;;;;7.32;5.10;;;;;;;22.87;nan;62037.72;5081049;28;20180;-59
2023/07/24 01:06:29;;;;;;;8.93;5.22;;;;;;;22.73;nan;61904.00;5085655;28;20727;-59
2023/07/24 01:08:54;;;;;;;7.50;4.80;;;;;;;22.67;nan;61855.47;5071729;28;20162;-60
2023/07/24 01:11:46;;;;;;;8.80;5.07;;;;;;;22.63;nan;61869.16;5071981;28;20621;-60
2023/07/24 01:14:41;;;;;;;8.43;4.72;;;;;;;22.99;nan;61868.38;5071112;28;20256;-60
2023/07/24 01:17:08;;;;;;;8.02;5.18;;;;;;;22.46;nan;61860.84;5071450;28;20706;-60
2023/07/24 01:19:48;;;;;;;8.38;4.97;;;;;;;22.64;nan;61764.06;5070569;28;20212;-61
2023/07/24 01:22:29;;;;;;;7.13;4.75;;;;;;;22.74;nan;61761.84;5085477;28;20250;-59
2023/07/24 01:25:05;;;;;;;9.10;5.15;;;;;;;22.79;nan;61721.19;5072045;28;20185;-60
2023/07/24 01:27:30;;;;;;;9.90;5.20;;;;;;;22.55;nan;61560.59;5075539;28;20210;-59
2023/07/24 01:29:55;;;;;;;9.15;5.28;;;;;;;22.52;nan;61473.88;5090836;28;20231;-60
2023/07/24 01:32:21;;;;;;;13.57;5.45;;;;;;;22.45;nan;61255.63;5091118;28;20200;-61
2023/07/24 01:34:47;;;;;;;7.85;5.13;;;;;;;22.31;nan;61053.03;5090668;28;20203;-61
2023/07/24 01:37:13;;;;;;;8.80;5.35;;;;;;;22.37;nan;60840.56;5090420;28;20174;-61
2023/07/24 01:39:44;;;;;;;8.57;5.03;;;;;;;22.52;nan;59904.56;5091706;28;20184;-61
2023/07/24 01:42:10;;;;;;;7.35;5.28;;;;;;;22.60;nan;58978.47;5092094;28;20169;-61
2023/07/24 01:44:35;;;;;;;8.38;5.05;;;;;;;22.63;nan;58115.19;5096505;28;20173;-61
2023/07/24 01:47:00;;;;;;;7.70;5.03;;;;;;;;;;5095606;28;20822;-61
2023/07/24 01:49:26;;;;;;;6.80;5.05;;;;;;;22.26;nan;55848.28;5095484;28;20230;-60
2023/07/24 01:51:51;;;;;;;7.35;4.85;;;;;;;22.51;nan;53964.00;5095237;28;20169;-60
2023/07/24 01:54:16;;;;;;;8.57;5.28;;;;;;;22.53;nan;49720.00;5078695;28;20178;-60
2023/07/24 01:56:43;;;;;;;8.90;5.60;;;;;;;22.42;nan;49655.72;5084655;28;20173;-60
2023/07/24 01:59:09;;;;;;;8.27;5.07;;;;;;;22.28;nan;45194.41;5082988;28;20221;-59
2023/07/24 02:01:34;;;;;;;7.68;5.15;;;;;;;22.24;nan;42136.16;5074607;28;20221;-59
2023/07/24 02:04:00;;;;;;;7.25;5.28;;;;;;;22.52;nan;38910.22;5091896;28;20652;-60
2023/07/24 02:06:25;;;;;;;9.90;5.57;;;;;;;22.40;nan;33219.38;5095459;28;20224;-60
2023/07/24 02:08:51;;;;;;;9.68;5.28;;;;;;;22.38;nan;28925.16;5095530;28;20264;-60
2023/07/24 02:11:17;;;;;;;8.48;5.93;;;;;;;21.85;nan;26257.13;5095053;28;20549;-59
2023/07/24 02:13:46;;;;;;;9.23;5.40;;;;;;;22.15;nan;24625.47;5095016;28;20172;-59
2023/07/24 02:16:12;;;;;;;8.30;5.85;;;;;;;22.23;nan;20677.66;5094984;28;20306;-60
2023/07/24 02:18:40;;;;;;;10.02;6.57;;;;;;;22.07;nan;16395.41;5094967;28;20329;-60
2023/07/24 02:21:06;;;;;;;11.55;6.63;;;;;;;22.35;nan;14762.59;5094702;28;20375;-60
2023/07/24 02:23:31;;;;;;;9.70;6.43;;;;;;;22.25;nan;11146.97;5095201;28;20165;-61
2023/07/24 02:25:56;;;;;;;10.70;6.20;;;;;;;22.29;nan;9179.28;5094868;28;20177;-61
2023/07/24 02:28:22;;;;;;;13.55;7.25;;;;;;;22.25;nan;9178.34;5094353;28;20204;-62
2023/07/24 02:30:48;;;;;;;9.15;6.05;;;;;;;21.99;nan;7860.25;5094574;28;20174;-61
2023/07/24 02:33:13;;;;;;;9.68;6.30;;;;;;;22.20;nan;6226.38;5094501;28;20173;-61
2023/07/24 02:35:40;;;;;;;9.68;6.28;;;;;;;22.22;nan;3933.78;5094396;28;20610;-61
2023/07/24 02:38:06;;;;;;;9.85;6.25;;;;;;;22.10;nan;2295.03;5094406;28;20248;-61
2023/07/24 02:40:31;;;;;;;13.65;7.72;;;;;;;22.00;nan;658.00;5094494;28;20350;-60
2023/07/24 02:42:57;;;;;;;12.85;7.53;;;;;;;22.19;nan;6.22;5094463;28;20184;-60
2023/07/24 02:45:22;;;;;;;13.05;7.38;;;;;;;22.13;nan;5.50;5094372;28;20192;-60
2023/07/24 02:47:48;;;;;;;14.45;8.05;;;;;;;22.19;nan;-1628.66;5094526;28;20252;-61
2023/07/24 02:50:13;;;;;;;15.25;8.00;;;;;;;22.12;nan;-4569.75;5093885;28;20184;-60
2023/07/24 02:52:38;;;;;;;16.02;7.95;;;;;;;20.32;nan;-6205.38;5094638;28;20180;-60
2023/07/24 02:55:04;;;;;;;15.63;7.40;;;;;;;22.00;nan;-4243.75;5093846;28;20192;-60
2023/07/24 02:57:30;;;;;;;13.88;8.45;;;;;;;22.06;nan;-6528.66;5093817;28;20162;-60
2023/07/24 02:59:55;;;;;;;16.00;8.80;;;;;;;21.87;nan;-6855.13;5094082;28;20233;-60
2023/07/24 03:02:21;;;;;;;16.40;7.82;;;;;;;22.05;nan;-8159.91;5093893;28;20164;-59
2023/07/24 03:04:46;;;;;;;18.50;8.57;;;;;;;22.05;nan;-8159.91;5075465;28;20761;-60
2023/07/24 03:07:11;;;;;;;14.77;7.95;;;;;;;22.12;nan;-7507.53;5094201;28;20176;-60
2023/07/24 03:09:37;;;;;;;15.85;7.82;;;;;;;22.13;nan;-7507.53;5094025;28;20169;-60
2023/07/24 03:12:02;;;;;;;17.17;8.35;;;;;;;21.89;nan;-7833.59;5093739;28;20636;-60
2023/07/24 03:14:28;;;;;;;16.83;8.20;;;;;;;22.18;nan;-6854.88;5094037;28;20177;-60
2023/07/24 03:16:53;;;;;;;15.98;8.25;;;;;;;22.17;nan;-7181.22;5094220;28;20172;-60
2023/07/24 03:19:20;;;;;;;15.27;8.13;;;;;;;21.81;nan;-8485.63;5093687;28;20256;-60
2023/07/24 03:21:45;;;;;;;14.30;8.35;;;;;;;19.72;nan;-11404.59;5093585;28;20745;-60
2023/07/24 03:24:11;;;;;;;13.45;7.55;;;;;;;22.01;nan;-11419.75;5094022;28;20177;-59
2023/07/24 03:26:36;;;;;;;20.00;8.73;;;;;;;21.91;nan;-12721.94;5062604;28;20554;-60
2023/07/24 03:29:02;;;;;;;16.20;8.57;;;;;;;21.89;nan;-11744.72;5091005;28;20276;-60
2023/07/24 03:31:27;;;;;;;18.40;8.55;;;;;;;22.00;nan;-11419.69;5073240;28;20319;-59
2023/07/24 03:33:52;;;;;;;15.00;8.25;;;;;;;22.04;nan;-10768.19;5077407;28;20200;-60
2023/07/24 03:36:18;;;;;;;16.45;7.88;;;;;;;22.04;nan;-9790.34;5093386;28;20162;-60
2023/07/24 03:38:43;;;;;;;15.50;8.23;;;;;;;22.09;nan;-7833.75;5093206;28;20201;-59
2023/07/24 03:41:08;;;;;;;20.02;8.35;;;;;;;22.13;nan;-7507.53;5093228;28;20189;-59
2023/07/24 03:43:34;;;;;;;19.73;8.80;;;;;;;22.13;nan;-5549.28;5093371;28;20173;-60
2023/07/24 03:45:59;;;;;;;18.08;9.00;;;;;;;21.98;nan;-4896.84;5093002;28;20251;-60
2023/07/24 03:48:25;;;;;;;15.55;8.70;;;;;;;21.96;nan;-4570.44;5092733;28;20631;-60
2023/07/24 03:50:58;;;;;;;17.38;8.70;;;;;;;22.27;nan;-3589.00;5093362;28;20169;-60
2023/07/24 03:53:23;;;;;;;15.38;8.52;;;;;;;21.84;nan;-5876.44;5093421;28;20636;-60
2023/07/24 03:55:48;;;;;;;13.60;8.35;;;;;;;21.87;nan;-5550.03;5092903;28;20216;-61
2023/07/24 03:58:14;;;;;;;16.85;8.60;;;;;;;22.01;nan;-1957.13;5092927;28;20547;-60
2023/07/24 04:00:39;;;;;;;21.45;8.88;;;;;;;22.02;nan;-649.69;5092589;28;20190;-62
2023/07/24 04:03:05;;;;;;;17.63;8.63;;;;;;;22.45;nan;991.03;5091529;28;20174;-62
2023/07/24 04:05:30;;;;;;;16.63;8.98;;;;;;;22.71;nan;7877.84;5091827;28;20304;-61
2023/07/24 04:07:55;;;;;;;15.23;8.05;;;;;;;23.25;nan;17758.06;5092049;28;20166;-62
2023/07/24 04:10:21;;;;;;;19.77;8.88;;;;;;;23.59;nan;25690.59;5092458;28;20205;-60
2023/07/24 04:12:50;;;;;;;18.23;9.32;;;;;;;23.89;nan;40709.13;5092560;28;20219;-62
2023/07/24 04:15:15;;;;;;;17.52;8.52;;;;;;;23.76;nan;47144.44;5092573;28;20173;-61
2023/07/24 04:17:41;;;;;;;16.45;8.13;;;;;;;24.83;nan;54085.41;5092118;28;20506;-62
2023/07/24 04:20:07;;;;;;;20.98;9.23;;;;;;;25.02;nan;56497.66;5091410;28;20821;-60
2023/07/24 04:22:33;;;;;;;18.17;7.88;;;;;;;25.01;nan;56715.41;5087160;28;20181;-62
2023/07/24 04:24:58;;;;;;;15.57;8.10;;;;;;;25.14;nan;58099.72;5071769;28;20231;-62
2023/07/24 04:27:23;;;;;;;11.52;6.55;;;;;;;25.06;nan;59089.63;5070689;28;20201;-61
2023/07/24 04:29:49;;;;;;;12.57;6.50;;;;;;;24.77;nan;59722.00;5071831;28;20158;-62
2023/07/24 04:32:14;;;;;;;11.57;6.40;;;;;;;24.86;nan;59538.59;5071359;28;20169;-62
2023/07/24 04:34:39;;;;;;;13.55;7.40;;;;;;;24.78;nan;59639.50;5071750;28;20170;-61
2023/07/24 04:37:05;;;;;;;11.93;6.47;;;;;;;24.90;nan;59680.88;5071200;28;20205;-61
2023/07/24 04:39:30;;;;;;;17.98;7.47;;;;;;;24.83;nan;59843.00;5071838;28;20280;-62
2023/07/24 04:41:56;;;;;;;12.13;6.70;;;;;;;25.11;nan;60166.56;5070964;28;20794;-63
2023/07/24 04:44:21;;;;;;;11.25;5.95;;;;;;;25.02;nan;60193.75;5071553;28;20177;-61
2023/07/24 04:46:47;;;;;;;12.85;6.28;;;;;;;25.36;nan;60470.84;5069898;28;20276;-61
2023/07/24 04:49:12;;;;;;;13.68;7.28;;;;;;;25.16;nan;60482.59;5077996;28;20311;-61
2023/07/24 04:51:37;;;;;;;9.95;6.15;;;;;;;25.36;nan;60555.09;5070964;28;20180;-63
2023/07/24 04:54:03;;;;;;;13.98;6.88;;;;;;;25.79;nan;60696.06;5080887;28;20230;-61
2023/07/24 04:56:28;;;;;;;12.35;6.82;;;;;;;26.34;nan;61118.88;5079490;28;20170;-61
2023/07/24 04:58:54;;;;;;;12.23;7.07;;;;;;;26.88;nan;61503.44;5070782;28;20182;-61
2023/07/24 05:01:19;;;;;;;14.55;7.75;;;;;;;27.30;nan;61610.59;5073951;28;20194;-63
2023/07/24 05:03:44;;;;;;;13.55;7.30;;;;;;;27.71;nan;61886.81;5077598;28;20185;-62
2023/07/24 05:06:10;;;;;;;15.82;6.78;;;;;;;28.10;nan;62152.34;5082508;28;20227;-62
2023/07/24 05:08:35;;;;;;;15.27;7.30;;;;;;;28.26;nan;62124.69;5071473;28;20170;-61
2023/07/24 05:11:00;;;;;;;12.45;6.75;;;;;;;28.44;nan;62256.16;5085261;28;20191;-61
2023/07/24 05:13:26;;;;;;;12.55;6.53;;;;;;;28.78;nan;62199.03;5091433;28;20681;-62
2023/07/24 05:15:52;;;;;;;17.88;7.32;;;;;;;29.21;nan;62436.94;5091052;28;20172;-61
2023/07/24 05:18:17;;;;;;;15.45;7.18;;;;;;;28.93;nan;62421.94;5077941;28;20177;-62
2023/07/24 05:20:47;;;;;;;18.27;7.90;;;;;;;28.62;nan;62465.47;5090010;28;20216;-61
2023/07/24 05:23:13;;;;;;;18.33;8.50;;;;;;;29.32;nan;62454.75;5077479;28;20203;-60
2023/07/24 05:25:39;;;;;;;18.83;8.48;;;;;;;29.66;nan;62593.69;5078110;28;20604;-61
2023/07/24 05:28:04;;;;;;;14.43;7.43;;;;;;;29.87;nan;62579.66;5095288;28;20163;-60
2023/07/24 05:30:29;;;;;;;12.73;7.43;;;;;;;30.57;nan;62744.13;5095250;28;20184;-64
2023/07/24 05:32:55;;;;;;;12.55;6.93;;;;;;;30.93;nan;62914.16;5095480;28;20540;-65
2023/07/24 05:35:20;;;;;;;14.55;7.60;;;;;;;30.59;nan;62809.75;5095572;28;20168;-63
2023/07/24 05:37:45;;;;;;;13.15;7.03;;;;;;;29.98;nan;62793.16;5094765;28;20596;-61
2023/07/24 05:40:11;;;;;;;15.45;7.47;;;;;;;29.21;nan;62592.84;5095047;28;20196;-61
2023/07/24 05:42:41;;;;;;;18.83;8.25;;;;;;;28.96;nan;62683.25;5076864;28;20187;-60
2023/07/24 05:45:07;;;;;;;15.23;7.65;;;;;;;28.98;nan;62588.19;5095087;28;20258;-63
2023/07/24 05:47:33;;;;;;;15.68;8.23;;;;;;;28.84;nan;62756.38;5095346;28;20177;-63
2023/07/24 05:49:58;;;;;;;12.38;7.70;;;;;;;28.89;nan;62633.16;5095387;28;20671;-67
2023/07/24 05:52:24;;;;;;;14.27;8.00;;;;;;;28.46;nan;62595.03;5095396;28;20223;-59
2023/07/24 05:54:49;;;;;;;18.90;8.82;;;;;;;28.19;nan;62550.44;5094724;28;20681;-60
2023/07/24 05:57:15;;;;;;;15.82;8.05;;;;;;;28.16;nan;62788.84;5094358;28;20176;-61
2023/07/24 05:59:40;;;;;;;20.20;10.27;;;;;;;28.15;nan;62580.59;5092865;28;20169;-61
2023/07/24 06:02:07;;;;;;;15.45;8.02;;;;;;;28.05;nan;62511.91;5093580;28;20191;-61
2023/07/24 06:04:32;;;;;;;18.92;8.10;;;;;;;28.14;nan;62579.47;5093304;28;20205;-60
2023/07/24 06:06:58;;;;;;;16.17;7.53;;;;;;;27.94;nan;62567.06;5093679;28;20189;-60
2023/07/24 06:09:23;;;;;;;15.43;8.13;;;;;;;27.57;nan;62462.31;5094032;28;20249;-62
2023/07/24 06:11:49;;;;;;;13.35;7.40;;;;;;;27.34;nan;62454.97;5094295;28;20173;-61
2023/07/24 06:14:14;;;;;;;15.10;8.13;;;;;;;27.67;nan;62531.50;5095030;28;20162;-61
2023/07/24 06:16:40;;;;;;;14.65;6.88;;;;;;;27.78;nan;62565.13;5095469;28;20613;-61
2023/07/24 06:19:06;;;;;;;15.98;7.45;;;;;;;27.97;nan;62617.81;5094872;28;20226;-61
2023/07/24 06:21:31;;;;;;;15.48;7.97;;;;;;;27.98;nan;62556.44;5094826;28;20207;-62
2023/07/24 06:23:56;;;;;;;12.18;7.55;;;;;;;27.96;nan;62580.44;5094822;28;20250;-61
2023/07/24 06:26:22;;;;;;;13.27;7.20;;;;;;;28.10;nan;62543.94;5094816;28;20629;-61
2023/07/24 06:28:47;;;;;;;13.77;7.97;;;;;;;28.50;nan;62710.06;5094116;28;20212;-61
2023/07/24 06:31:13;;;;;;;15.50;7.80;;;;;;;28.76;nan;62757.72;5094317;28;20259;-61
2023/07/24 06:33:38;;;;;;;14.48;7.30;;;;;;;28.65;nan;62752.97;5094640;28;20651;-61
2023/07/24 06:36:04;;;;;;;12.70;7.28;;;;;;;28.98;nan;62738.19;5094902;28;20180;-61
2023/07/24 06:38:29;;;;;;;16.50;8.25;;;;;;;28.79;nan;62695.38;5094597;28;20169;-60
2023/07/24 06:40:55;;;;;;;15.98;7.70;;;;;;;28.90;nan;62715.31;5094117;28;20207;-61
2023/07/24 06:43:20;;;;;;;15.30;8.05;;;;;;;28.73;nan;62772.69;5094433;28;20252;-61
2023/07/24 06:45:45;;;;;;;13.10;7.30;;;;;;;28.66;nan;62630.50;5094374;28;20173;-61
2023/07/24 06:48:11;;;;;;;12.77;7.07;;;;;;;28.79;nan;62721.69;5094885;28;20176;-61
2023/07/24 06:50:36;;;;;;;14.40;7.38;;;;;;;29.02;nan;62928.53;5094427;28;20180;-61
2023/07/24 06:53:01;;;;;;;12.07;7.43;;;;;;;28.69;nan;62702.31;5094834;28;20251;-61
2023/07/24 06:55:27;;;;;;;16.98;7.55;;;;;;;28.59;nan;62695.53;5093831;28;20246;-60
2023/07/24 06:57:52;;;;;;;11.70;6.78;;;;;;;28.64;nan;62678.19;5093747;28;20165;-61
2023/07/24 07:00:18;;;;;;;13.18;7.45;;;;;;;28.74;nan;62868.56;5093863;28;20671;-61
2023/07/24 07:02:43;;;;;;;13.43;7.35;;;;;;;29.41;nan;62883.78;5094318;28;20283;-61
2023/07/24 07:05:09;;;;;;;13.20;7.05;;;;;;;29.52;nan;62928.03;5094321;28;20224;-61
2023/07/24 07:07:34;;;;;;;13.57;7.10;;;;;;;29.51;nan;62905.81;5094028;28;20635;-60
2023/07/24 07:10:00;;;;;;;17.23;7.90;;;;;;;29.09;nan;62797.59;5094101;28;20165;-62
2023/07/24 07:12:25;;;;;;;14.38;8.00;;;;;;;29.21;nan;62895.06;5093690;28;20204;-62
2023/07/24 07:14:51;;;;;;;15.30;7.88;;;;;;;29.31;nan;62817.59;5093657;28;20169;-61
2023/07/24 07:17:16;;;;;;;13.30;7.40;;;;;;;29.38;nan;62870.41;5093572;28;20203;-61
2023/07/24 07:19:41;;;;;;;15.30;6.78;;;;;;;29.51;nan;62839.94;5093288;28;20176;-61
2023/07/24 07:22:07;;;;;;;12.30;6.97;;;;;;;29.43;nan;62996.72;5093286;28;20550;-60
2023/07/24 07:24:32;;;;;;;13.45;7.45;;;;;;;29.64;nan;62970.81;5093462;28;20161;-61
2023/07/24 07:26:57;;;;;;;16.02;7.65;;;;;;;29.51;nan;62929.53;5093115;28;20169;-60
2023/07/24 07:29:23;;;;;;;13.77;7.22;;;;;;;29.64;nan;62872.75;5093233;28;20183;-60
2023/07/24 07:31:48;;;;;;;14.15;7.55;;;;;;;29.67;nan;62882.03;5093612;28;20658;-61
2023/07/24 07:34:13;;;;;;;15.82;7.63;;;;;;;29.79;nan;62895.22;5093391;28;20172;-60
2023/07/24 07:36:39;;;;;;;13.38;7.55;;;;;;;29.84;nan;62943.72;5086570;28;20619;-60
2023/07/24 07:39:04;;;;;;;14.90;7.70;;;;;;;29.81;nan;62916.56;5081551;28;20191;-62
2023/07/24 07:41:30;;;;;;;16.30;7.15;;;;;;;29.89;nan;62935.16;5080949;28;20238;-61
2023/07/24 07:43:55;;;;;;;15.63;7.65;;;;;;;29.76;nan;62945.06;5072926;28;20227;-61
2023/07/24 07:46:21;;;;;;;16.92;7.32;;;;;;;29.82;nan;63022.56;5089036;28;20173;-61
2023/07/24 07:48:46;;;;;;;17.27;7.38;;;;;;;29.79;nan;62982.78;5076231;28;20185;-60
2023/07/24 07:51:12;;;;;;;14.07;7.75;;;;;;;30.25;nan;63011.34;5082056;28;20183;-61
2023/07/24 07:53:38;;;;;;;14.40;7.38;;;;;;;30.36;nan;63051.88;5081237;28;20205;-60
2023/07/24 07:56:04;;;;;;;14.63;7.50;;;;;;;29.97;nan;62986.50;5072495;28;20230;-61
2023/07/24 07:58:29;;;;;;;17.15;7.82;;;;;;;30.12;nan;62951.00;5088991;28;20322;-60
2023/07/24 08:00:55;;;;;;;13.30;8.00;;;;;;;25.99;nan;64395.31;5092842;28;20691;-61
2023/07/24 08:03:20;;;;;;;15.15;7.63;;;;;;;30.35;nan;62956.31;5092748;28;20173;-61
2023/07/24 08:05:46;;;;;;;13.57;7.55;;;;;;;30.28;nan;62998.41;5084897;28;20228;-61
2023/07/24 08:08:11;;;;;;;15.88;7.38;;;;;;;30.63;nan;63099.34;5080929;28;20198;-61
2023/07/24 08:10:40;;;;;;;12.63;6.22;;;;;;;30.55;nan;63045.31;5081961;28;20227;-60
2023/07/24 08:13:07;;;;;;;18.55;7.85;;;;;;;30.13;nan;63094.56;5071959;28;20260;-61
2023/07/24 08:15:37;;;;;;;18.27;8.85;;;;;;;30.27;nan;62997.84;5088611;28;20187;-60
2023/07/24 08:18:06;;;;;;;14.25;7.80;;;;;;;30.33;nan;63095.91;5074403;28;20185;-61
2023/07/24 08:20:34;;;;;;;13.50;7.55;;;;;;;30.40;nan;62993.16;5057095;28;20669;-61
2023/07/24 08:23:00;;;;;;;14.65;7.78;;;;;;;30.47;nan;63186.50;5092595;28;20655;-61
2023/07/24 08:25:25;;;;;;;14.45;7.55;;;;;;;30.42;nan;63003.94;5084392;28;20190;-61
2023/07/24 08:27:51;;;;;;;14.05;7.18;;;;;;;30.69;nan;63089.84;5072422;28;20177;-62
2023/07/24 08:30:16;;;;;;;13.02;7.22;;;;;;;30.34;nan;63028.47;5072489;28;20617;-61
2023/07/24 08:32:41;;;;;;;14.55;8.10;;;;;;;30.03;nan;63146.34;5072230;28;20234;-63
2023/07/24 08:35:07;;;;;;;14.13;7.38;;;;;;;30.11;nan;63061.19;5072670;28;20237;-61
2023/07/24 08:37:32;;;;;;;13.23;7.85;;;;;;;30.22;nan;62960.44;5071873;28;20166;-60
2023/07/24 08:39:58;;;;;;;13.35;7.28;;;;;;;30.36;nan;63031.34;5071725;28;20201;-61
2023/07/24 08:42:23;;;;;;;15.48;8.30;;;;;;;30.88;nan;63121.69;5071702;28;20556;-61
2023/07/24 08:44:50;;;;;;;15.30;8.05;;;;;;;30.77;nan;63080.56;5072275;28;20173;-61
2023/07/24 08:47:16;;;;;;;12.95;7.35;;;;;;;31.22;nan;63118.56;5070375;28;20235;-60
2023/07/24 08:49:42;;;;;;;15.40;7.75;;;;;;;31.01;nan;63176.88;5071744;28;20162;-61
2023/07/24 08:52:09;;;;;;;14.32;7.35;;;;;;;30.56;nan;63037.97;5070046;28;20173;-61
2023/07/24 08:54:38;;;;;;;15.15;7.30;;;;;;;30.88;nan;63204.13;5083435;28;20184;-61
2023/07/24 08:57:06;;;;;;;13.07;7.20;;;;;;;30.65;nan;63009.28;5076113;28;20183;-60
2023/07/24 08:59:32;;;;;;;14.60;7.70;;;;;;;30.68;nan;63097.19;5074586;28;20172;-61
2023/07/24 09:01:57;;;;;;;15.70;8.65;;;;;;;31.07;nan;63154.72;5085612;28;20193;-61
2023/07/24 09:04:24;;;;;;;12.90;7.05;;;;;;;31.04;nan;63145.41;5070629;28;20220;-60
2023/07/24 09:06:50;;;;;;;12.70;7.10;;;;;;;31.27;nan;63152.81;5070547;28;20177;-60
2023/07/24 09:09:16;;;;;;;14.50;8.23;;;;;;;31.27;nan;63219.44;5077718;28;20169;-61
2023/07/24 09:11:50;;;;;;;15.82;7.85;;;;;;;31.25;nan;63145.81;5070495;28;20659;-62
2023/07/24 09:14:30;;;;;;;14.00;7.68;;;;;;;30.85;nan;63155.78;5071702;28;20185;-62
2023/07/24 09:17:11;;;;;;;15.15;7.88;;;;;;;31.14;nan;63374.09;5086075;28;20191;-62
2023/07/24 09:19:37;;;;;;;16.48;8.90;;;;;;;31.26;nan;63178.66;5071196;28;20177;-63
2023/07/24 09:22:10;;;;;;;16.23;8.57;;;;;;;31.27;nan;63213.56;5082071;28;20231;-63
2023/07/24 09:24:35;;;;;;;14.38;8.23;;;;;;;31.35;nan;63186.38;5091430;28;20221;-63
2023/07/24 09:27:06;;;;;;;14.50;8.20;;;;;;;31.17;nan;63144.53;5074337;28;20220;-63
2023/07/24 09:29:32;;;;;;;15.52;8.18;;;;;;;31.38;nan;63174.00;5088367;28;20173;-64
2023/07/24 09:31:59;;;;;;;16.58;8.50;;;;;;;31.11;nan;63209.53;5071178;28;20170;-63
2023/07/24 09:34:25;;;;;;;14.70;8.15;;;;;;;31.64;nan;63194.84;5077424;28;20177;-63
2023/07/24 09:36:51;;;;;;;14.65;8.52;;;;;;;31.47;nan;63110.34;5091131;28;20173;-62
2023/07/24 09:39:26;;;;;;;14.85;7.70;;;;;;;30.88;nan;63206.78;5090708;28;20169;-62
2023/07/24 09:41:52;;;;;;;18.05;9.10;;;;;;;30.99;nan;63142.28;5072695;28;20212;-60
2023/07/24 09:44:18;;;;;;;14.70;8.10;;;;;;;30.89;nan;63186.78;5091203;28;20704;-61
2023/07/24 09:46:43;;;;;;;13.20;7.57;;;;;;;28.14;nan;64740.06;5090618;28;20173;-63
2023/07/24 09:49:09;;;;;;;15.55;8.40;;;;;;;31.86;nan;63300.09;5072246;28;20189;-63
2023/07/24 09:51:35;;;;;;;16.52;8.35;;;;;;;32.06;nan;63362.25;5088536;28;20183;-60
2023/07/24 09:54:20;;;;;;;15.60;8.30;;;;;;;30.88;nan;63119.63;5070856;28;20181;-63
2023/07/24 09:56:47;;;;;;;13.43;8.07;;;;;;;31.45;nan;63446.31;5080737;28;20255;-62
2023/07/24 09:59:13;;;;;;;13.35;7.72;;;;;;;31.44;nan;63428.75;5072731;28;20184;-61
2023/07/24 10:01:39;;;;;;;10.93;7.05;;;;;;;31.83;nan;63294.00;5090554;28;20196;-60
2023/07/24 10:04:05;;;;;;;12.25;6.82;;;;;;;31.91;nan;63247.09;5092274;28;20173;-60
2023/07/24 10:06:31;;;;;;;11.85;6.90;;;;;;;32.05;nan;63302.34;5094567;28;20312;-62
2023/07/24 10:08:57;;;;;;;12.35;6.95;;;;;;;32.38;nan;63367.47;5094257;28;20554;-62
2023/07/24 10:11:24;;;;;;;11.38;6.30;;;;;;;32.57;nan;63409.97;5094599;28;20173;-63
2023/07/24 10:13:50;;;;;;;10.85;6.72;;;;;;;32.40;nan;63342.72;5094205;28;20192;-61
2023/07/24 10:16:16;;;;;;;12.90;6.68;;;;;;;32.61;nan;63414.59;5083614;28;20205;-62
2023/07/24 10:18:45;;;;;;;9.80;6.15;;;;;;;32.64;nan;63436.06;5072667;28;20208;-62
2023/07/24 10:21:11;;;;;;;13.93;6.75;;;;;;;32.02;nan;63299.47;5081988;28;20192;-60
2023/07/24 10:23:41;;;;;;;11.18;6.53;;;;;;;32.07;nan;63270.84;5083606;28;20326;-61
2023/07/24 10:26:07;;;;;;;11.63;6.30;;;;;;;32.29;nan;63613.19;5073657;28;20648;-62
2023/07/24 10:28:42;;;;;;;16.58;7.38;;;;;;;32.35;nan;63358.13;5089847;28;20199;-62
2023/07/24 10:31:22;;;;;;;11.82;6.53;;;;;;;32.19;nan;63300.56;5093441;28;20164;-62
2023/07/24 10:33:49;;;;;;;11.52;6.55;;;;;;;28.69;nan;64791.78;5071264;28;20181;-64
2023/07/24 10:36:19;;;;;;;12.10;6.50;;;;;;;32.36;nan;63632.50;5088799;28;20203;-64
2023/07/24 10:38:46;;;;;;;12.15;6.50;;;;;;;32.78;nan;63415.13;5072211;28;20177;-62
2023/07/24 10:41:12;;;;;;;12.93;7.18;;;;;;;32.88;nan;63526.75;5081286;28;20193;-62
2023/07/24 10:43:59;;;;;;;10.95;6.32;;;;;;;33.03;nan;63483.16;5080159;28;20192;-62
2023/07/24 10:46:36;;;;;;;11.13;6.30;;;;;;;32.61;nan;63478.16;5071935;28;20250;-62
2023/07/24 10:49:02;;;;;;;11.07;6.13;;;;;;;32.32;nan;63357.88;5072400;28;20212;-62
2023/07/24 10:51:29;;;;;;;13.00;6.35;;;;;;;32.37;nan;63308.06;5072358;28;20698;-62
2023/07/24 10:53:55;;;;;;;14.30;6.65;;;;;;;32.76;nan;63441.97;5072479;28;20272;-62
2023/07/24 10:56:20;;;;;;;11.18;6.15;;;;;;;33.00;nan;63410.81;5059962;28;20217;-63
2023/07/24 10:58:46;;;;;;;11.93;6.70;;;;;;;32.83;nan;63529.50;5088781;28;20185;-64
2023/07/24 11:01:11;;;;;;;12.65;6.55;;;;;;;33.05;nan;63483.41;5072659;28;20635;-63
2023/07/24 11:03:39;;;;;;;13.98;6.53;;;;;;;33.11;nan;63468.56;5082512;28;20609;-63
2023/07/24 11:06:05;;;;;;;16.05;7.13;;;;;;;32.82;nan;63409.16;5093398;28;20675;-62
2023/07/24 11:08:31;;;;;;;12.60;6.88;;;;;;;32.94;nan;63671.44;5073941;28;20216;-64
2023/07/24 11:10:58;;;;;;;11.48;6.30;;;;;;;33.11;nan;63574.56;5075505;28;20181;-63
2023/07/24 11:13:26;;;;;;;14.60;6.70;;;;;;;33.10;nan;63486.53;5087691;28;20177;-61
2023/07/24 11:15:52;;;;;;;10.25;6.10;;;;;;;32.64;nan;63518.13;5073493;28;20181;-63
2023/07/24 11:18:21;;;;;;;9.65;5.90;;;;;;;32.60;nan;63418.72;5084201;28;20227;-62
2023/07/24 11:20:55;;;;;;;12.40;6.63;;;;;;;32.40;nan;63353.88;5091526;28;20747;-62
2023/07/24 11:23:22;;;;;;;12.20;6.95;;;;;;;31.89;nan;63226.88;5072812;28;20181;-63
2023/07/24 11:25:51;;;;;;;11.40;6.40;;;;;;;32.15;nan;63430.88;5071997;28;20572;-62
2023/07/24 11:28:16;;;;;;;12.57;7.03;;;;;;;29.46;nan;63044.94;5087208;28;20184;-62
2023/07/24 11:30:43;;;;;;;13.23;7.30;;;;;;;32.66;nan;63309.19;5075885;28;20238;-61
2023/07/24 11:33:12;;;;;;;12.25;6.18;;;;;;;29.66;nan;64889.34;5074023;28;20722;-67
2023/07/24 11:35:39;;;;;;;14.30;7.40;;;;;;;32.80;nan;63473.63;5092668;28;20655;-64
2023/07/24 11:38:07;;;;;;;14.43;7.47;;;;;;;32.97;nan;63476.78;5089647;28;20200;-62
2023/07/24 11:40:38;;;;;;;13.13;6.90;;;;;;;33.05;nan;63453.69;5077743;28;20203;-61